Aérodrome :
LOGIN :

S'inscrire | Disclaimer

   EN    FR    IT 

 










Légende :    VFR   VFR Marginal   IFR   IFR Intensif   IFR Très Intensif
Visi : 
Plafond : 
>= 8 km
>= 3000ft
5 à 8 km
1000 à 3000 ft
1500m à 5 km
500 à 1000 ft
800 à 1500m
200 à 500 ft
< 800m
< 200 ft
Symboles :   Orages  Brouillard  Fortes neiges  Fortes précipitations  Vent > 20 kt
SIGMETs :   Divers  Orages  Givrage  Turbulence  Onde Orograph.  Cendres Volcan.






- Altitude de l'aérodrome : 52 ft
- Code IATA : RNN


EKRN - Bornholm Ronne

DERNIER METAR :
  • 270020Z AUTO 04001KT 0200 R11/0700D R29/1300D BCFG VV001 06/06 Q1033

METARs EXPIRÉS :
  • 262350Z AUTO 05002KT 0100 R11/0500N R29/0600N FG VV001 06/06 Q1034
  • 262320Z AUTO 07002KT 0100 R11/0450N R29/0450N FG VV001 07/07 Q1034
  • 262250Z AUTO 07001KT 0050 R11/0375N R29/0450N FG VV001 07/07 Q1034
  • 262220Z AUTO 00000KT 0100 R11/0400N R29/0500N FG VV001 06/06 Q1034
  • 262150Z AUTO 00000KT 0100 R11/0450N R29/0400N FG VV001 06/06 Q1034

Prévision TAF périmée.



MET'MAP, la Météo Aéronautique d'un coup d'oeil ! - Copyright ORBIFLY Décembre 2007 - Disclaimer

ORBIFLY MET'MAP TEAM :

Programmation & Développement : Alexandra Zaïnal
Sur une idée originale de : Baudouin d'Aumeries
Assistance à la programmation : Marc-Olivier Méhu
Soutien technique & logistique : Manuel Goepfert

Contact : metmap@orbifly.com




SOURCES & CREDITS :

   NOAA